sensor_id;sensor_type;location;lat;lon;timestamp;P1;durP1;ratioP1;P2;durP2;ratioP2
29294;SDS011;16305;48.566;8.846;2023-04-01T00:00:50;3.93;;;1.00;;
29294;SDS011;16305;48.566;8.846;2023-04-01T00:03:17;3.47;;;0.90;;
29294;SDS011;16305;48.566;8.846;2023-04-01T00:05:43;2.47;;;0.80;;
29294;SDS011;16305;48.566;8.846;2023-04-01T00:08:09;5.07;;;1.07;;
29294;SDS011;16305;48.566;8.846;2023-04-01T00:10:36;5.03;;;0.83;;
29294;SDS011;16305;48.566;8.846;2023-04-01T00:13:01;4.57;;;0.83;;
29294;SDS011;16305;48.566;8.846;2023-04-01T00:15:27;7.03;;;0.60;;
29294;SDS011;16305;48.566;8.846;2023-04-01T00:17:53;3.00;;;0.77;;
29294;SDS011;16305;48.566;8.846;2023-04-01T00:20:19;3.30;;;0.70;;
29294;SDS011;16305;48.566;8.846;2023-04-01T00:22:44;1.03;;;0.50;;
29294;SDS011;16305;48.566;8.846;2023-04-01T00:25:10;5.73;;;0.77;;
29294;SDS011;16305;48.566;8.846;2023-04-01T00:27:36;1.10;;;0.60;;
29294;SDS011;16305;48.566;8.846;2023-04-01T00:30:02;2.93;;;0.73;;
29294;SDS011;16305;48.566;8.846;2023-04-01T00:32:28;3.70;;;0.80;;
29294;SDS011;16305;48.566;8.846;2023-04-01T00:34:53;5.20;;;1.10;;
29294;SDS011;16305;48.566;8.846;2023-04-01T00:37:19;2.53;;;0.60;;
29294;SDS011;16305;48.566;8.846;2023-04-01T00:39:46;4.80;;;0.63;;
29294;SDS011;16305;48.566;8.846;2023-04-01T00:42:11;4.60;;;0.87;;
29294;SDS011;16305;48.566;8.846;2023-04-01T00:44:39;3.77;;;0.83;;
29294;SDS011;16305;48.566;8.846;2023-04-01T00:47:05;3.13;;;0.63;;
29294;SDS011;16305;48.566;8.846;2023-04-01T00:49:32;3.47;;;1.00;;
29294;SDS011;16305;48.566;8.846;2023-04-01T00:52:00;3.33;;;0.80;;
29294;SDS011;16305;48.566;8.846;2023-04-01T00:54:28;3.97;;;0.80;;
29294;SDS011;16305;48.566;8.846;2023-04-01T00:57:02;1.00;;;0.60;;
29294;SDS011;16305;48.566;8.846;2023-04-01T00:59:34;2.77;;;0.63;;
29294;SDS011;16305;48.566;8.846;2023-04-01T01:02:05;3.20;;;0.70;;
29294;SDS011;16305;48.566;8.846;2023-04-01T01:04:34;2.17;;;0.60;;
29294;SDS011;16305;48.566;8.846;2023-04-01T01:10:05;2.87;;;0.53;;
29294;SDS011;16305;48.566;8.846;2023-04-01T01:12:45;1.77;;;0.60;;
29294;SDS011;16305;48.566;8.846;2023-04-01T01:24:27;2.67;;;0.70;;
29294;SDS011;16305;48.566;8.846;2023-04-01T01:27:03;0.30;;;0.30;;
29294;SDS011;16305;48.566;8.846;2023-04-01T01:35:24;2.97;;;0.77;;
29294;SDS011;16305;48.566;8.846;2023-04-01T01:37:59;2.27;;;0.63;;
29294;SDS011;16305;48.566;8.846;2023-04-01T01:40:28;0.30;;;0.30;;
29294;SDS011;16305;48.566;8.846;2023-04-01T01:42:57;0.97;;;0.50;;
29294;SDS011;16305;48.566;8.846;2023-04-01T01:45:28;0.57;;;0.30;;
29294;SDS011;16305;48.566;8.846;2023-04-01T01:47:56;0.37;;;0.30;;
29294;SDS011;16305;48.566;8.846;2023-04-01T01:50:25;1.87;;;0.30;;
29294;SDS011;16305;48.566;8.846;2023-04-01T01:52:51;0.53;;;0.30;;
29294;SDS011;16305;48.566;8.846;2023-04-01T01:55:33;0.30;;;0.30;;
29294;SDS011;16305;48.566;8.846;2023-04-01T01:58:02;0.87;;;0.23;;
29294;SDS011;16305;48.566;8.846;2023-04-01T02:00:50;0.20;;;0.20;;
29294;SDS011;16305;48.566;8.846;2023-04-01T02:03:19;0.40;;;0.30;;
29294;SDS011;16305;48.566;8.846;2023-04-01T02:05:47;1.80;;;0.50;;
29294;SDS011;16305;48.566;8.846;2023-04-01T02:08:16;0.40;;;0.40;;
29294;SDS011;16305;48.566;8.846;2023-04-01T02:11:01;1.90;;;0.40;;
29294;SDS011;16305;48.566;8.846;2023-04-01T02:13:47;0.83;;;0.50;;
29294;SDS011;16305;48.566;8.846;2023-04-01T02:16:15;0.37;;;0.37;;
29294;SDS011;16305;48.566;8.846;2023-04-01T02:18:49;0.43;;;0.33;;
29294;SDS011;16305;48.566;8.846;2023-04-01T02:21:18;0.90;;;0.50;;
29294;SDS011;16305;48.566;8.846;2023-04-01T02:23:45;1.17;;;0.60;;
29294;SDS011;16305;48.566;8.846;2023-04-01T02:26:12;0.37;;;0.20;;
29294;SDS011;16305;48.566;8.846;2023-04-01T02:28:38;0.17;;;0.17;;
29294;SDS011;16305;48.566;8.846;2023-04-01T02:31:06;1.07;;;0.30;;
29294;SDS011;16305;48.566;8.846;2023-04-01T02:33:33;0.23;;;0.20;;
29294;SDS011;16305;48.566;8.846;2023-04-01T02:35:59;0.37;;;0.30;;
29294;SDS011;16305;48.566;8.846;2023-04-01T02:38:25;0.60;;;0.60;;
29294;SDS011;16305;48.566;8.846;2023-04-01T02:40:55;1.53;;;0.50;;
29294;SDS011;16305;48.566;8.846;2023-04-01T02:43:25;0.77;;;0.50;;
29294;SDS011;16305;48.566;8.846;2023-04-01T02:45:51;2.17;;;0.40;;
29294;SDS011;16305;48.566;8.846;2023-04-01T02:48:17;0.60;;;0.50;;
29294;SDS011;16305;48.566;8.846;2023-04-01T02:50:43;0.57;;;0.30;;
29294;SDS011;16305;48.566;8.846;2023-04-01T02:53:08;1.43;;;0.30;;
29294;SDS011;16305;48.566;8.846;2023-04-01T02:55:34;0.93;;;0.30;;
29294;SDS011;16305;48.566;8.846;2023-04-01T02:58:00;0.53;;;0.40;;
29294;SDS011;16305;48.566;8.846;2023-04-01T03:00:26;0.40;;;0.30;;
29294;SDS011;16305;48.566;8.846;2023-04-01T03:02:52;2.03;;;0.30;;
29294;SDS011;16305;48.566;8.846;2023-04-01T03:05:17;0.73;;;0.30;;
29294;SDS011;16305;48.566;8.846;2023-04-01T03:07:43;1.17;;;0.30;;
29294;SDS011;16305;48.566;8.846;2023-04-01T03:10:09;0.90;;;0.80;;
29294;SDS011;16305;48.566;8.846;2023-04-01T03:12:35;1.03;;;0.70;;
29294;SDS011;16305;48.566;8.846;2023-04-01T03:15:01;1.80;;;0.50;;
29294;SDS011;16305;48.566;8.846;2023-04-01T03:17:26;0.67;;;0.30;;
29294;SDS011;16305;48.566;8.846;2023-04-01T03:19:52;0.83;;;0.40;;
29294;SDS011;16305;48.566;8.846;2023-04-01T03:22:18;1.50;;;0.60;;
29294;SDS011;16305;48.566;8.846;2023-04-01T03:24:45;1.37;;;0.40;;
29294;SDS011;16305;48.566;8.846;2023-04-01T03:27:12;0.40;;;0.37;;
29294;SDS011;16305;48.566;8.846;2023-04-01T03:29:37;1.43;;;0.60;;
29294;SDS011;16305;48.566;8.846;2023-04-01T03:32:03;4.03;;;1.37;;
29294;SDS011;16305;48.566;8.846;2023-04-01T03:34:29;1.23;;;0.53;;
29294;SDS011;16305;48.566;8.846;2023-04-01T03:36:54;0.60;;;0.40;;
29294;SDS011;16305;48.566;8.846;2023-04-01T03:39:20;0.33;;;0.33;;
29294;SDS011;16305;48.566;8.846;2023-04-01T03:41:46;1.50;;;0.37;;
29294;SDS011;16305;48.566;8.846;2023-04-01T03:44:11;0.77;;;0.40;;
29294;SDS011;16305;48.566;8.846;2023-04-01T03:46:37;2.40;;;0.30;;
29294;SDS011;16305;48.566;8.846;2023-04-01T03:49:05;0.30;;;0.30;;
29294;SDS011;16305;48.566;8.846;2023-04-01T03:51:36;2.70;;;0.50;;
29294;SDS011;16305;48.566;8.846;2023-04-01T03:54:06;0.37;;;0.37;;
29294;SDS011;16305;48.566;8.846;2023-04-01T03:56:32;1.57;;;0.50;;
29294;SDS011;16305;48.566;8.846;2023-04-01T03:58:57;0.57;;;0.50;;
29294;SDS011;16305;48.566;8.846;2023-04-01T04:01:23;1.80;;;0.50;;
29294;SDS011;16305;48.566;8.846;2023-04-01T04:03:49;1.33;;;0.80;;
29294;SDS011;16305;48.566;8.846;2023-04-01T04:06:16;2.33;;;0.50;;
29294;SDS011;16305;48.566;8.846;2023-04-01T04:08:43;0.43;;;0.40;;
29294;SDS011;16305;48.566;8.846;2023-04-01T04:11:09;1.37;;;0.40;;
29294;SDS011;16305;48.566;8.846;2023-04-01T04:13:35;1.33;;;0.50;;
29294;SDS011;16305;48.566;8.846;2023-04-01T04:16:01;1.90;;;0.50;;
29294;SDS011;16305;48.566;8.846;2023-04-01T04:18:27;3.33;;;0.67;;
29294;SDS011;16305;48.566;8.846;2023-04-01T04:20:53;3.43;;;0.40;;
29294;SDS011;16305;48.566;8.846;2023-04-01T04:23:19;2.40;;;0.50;;
29294;SDS011;16305;48.566;8.846;2023-04-01T04:25:57;2.47;;;0.80;;
29294;SDS011;16305;48.566;8.846;2023-04-01T04:28:30;1.83;;;0.50;;
29294;SDS011;16305;48.566;8.846;2023-04-01T04:30:57;2.93;;;0.63;;
29294;SDS011;16305;48.566;8.846;2023-04-01T04:33:23;2.77;;;0.70;;
29294;SDS011;16305;48.566;8.846;2023-04-01T04:35:49;5.77;;;1.30;;
29294;SDS011;16305;48.566;8.846;2023-04-01T04:38:15;1.63;;;0.50;;
29294;SDS011;16305;48.566;8.846;2023-04-01T04:40:41;1.23;;;0.50;;
29294;SDS011;16305;48.566;8.846;2023-04-01T04:43:10;2.60;;;0.60;;
29294;SDS011;16305;48.566;8.846;2023-04-01T04:45:37;5.90;;;1.00;;
29294;SDS011;16305;48.566;8.846;2023-04-01T04:48:02;2.47;;;0.77;;
29294;SDS011;16305;48.566;8.846;2023-04-01T04:50:28;3.63;;;0.80;;
29294;SDS011;16305;48.566;8.846;2023-04-01T04:52:54;2.30;;;0.70;;
29294;SDS011;16305;48.566;8.846;2023-04-01T04:55:20;3.80;;;0.77;;
29294;SDS011;16305;48.566;8.846;2023-04-01T04:57:46;5.13;;;0.83;;
29294;SDS011;16305;48.566;8.846;2023-04-01T05:00:11;2.70;;;0.70;;
29294;SDS011;16305;48.566;8.846;2023-04-01T05:02:37;1.83;;;0.60;;
29294;SDS011;16305;48.566;8.846;2023-04-01T05:05:02;2.60;;;0.60;;
29294;SDS011;16305;48.566;8.846;2023-04-01T05:07:29;3.17;;;0.60;;
29294;SDS011;16305;48.566;8.846;2023-04-01T05:09:54;2.33;;;0.50;;
29294;SDS011;16305;48.566;8.846;2023-04-01T05:12:20;1.93;;;0.60;;
29294;SDS011;16305;48.566;8.846;2023-04-01T05:14:46;6.33;;;1.30;;
29294;SDS011;16305;48.566;8.846;2023-04-01T05:17:12;3.37;;;0.60;;
29294;SDS011;16305;48.566;8.846;2023-04-01T05:19:37;2.07;;;0.63;;
29294;SDS011;16305;48.566;8.846;2023-04-01T05:22:04;1.50;;;0.57;;
29294;SDS011;16305;48.566;8.846;2023-04-01T05:24:30;1.90;;;0.60;;
29294;SDS011;16305;48.566;8.846;2023-04-01T05:26:56;4.20;;;1.13;;
29294;SDS011;16305;48.566;8.846;2023-04-01T05:29:22;4.07;;;0.80;;
29294;SDS011;16305;48.566;8.846;2023-04-01T05:31:48;3.90;;;0.80;;
29294;SDS011;16305;48.566;8.846;2023-04-01T05:34:14;4.37;;;0.90;;
29294;SDS011;16305;48.566;8.846;2023-04-01T05:36:40;3.73;;;0.60;;
29294;SDS011;16305;48.566;8.846;2023-04-01T05:39:06;1.97;;;0.70;;
29294;SDS011;16305;48.566;8.846;2023-04-01T05:41:34;2.17;;;0.60;;
29294;SDS011;16305;48.566;8.846;2023-04-01T05:44:00;2.07;;;1.00;;
29294;SDS011;16305;48.566;8.846;2023-04-01T05:46:26;2.70;;;1.90;;
29294;SDS011;16305;48.566;8.846;2023-04-01T05:48:51;3.57;;;1.00;;
29294;SDS011;16305;48.566;8.846;2023-04-01T05:51:17;1.87;;;0.80;;
29294;SDS011;16305;48.566;8.846;2023-04-01T05:53:42;1.57;;;0.63;;
29294;SDS011;16305;48.566;8.846;2023-04-01T05:56:08;3.90;;;0.60;;
29294;SDS011;16305;48.566;8.846;2023-04-01T05:58:35;2.50;;;0.73;;
29294;SDS011;16305;48.566;8.846;2023-04-01T06:01:02;2.30;;;0.87;;
29294;SDS011;16305;48.566;8.846;2023-04-01T06:03:31;1.50;;;0.50;;
29294;SDS011;16305;48.566;8.846;2023-04-01T06:05:57;1.30;;;0.50;;
29294;SDS011;16305;48.566;8.846;2023-04-01T06:08:23;4.07;;;1.00;;
29294;SDS011;16305;48.566;8.846;2023-04-01T06:22:22;3.33;;;1.10;;
29294;SDS011;16305;48.566;8.846;2023-04-01T06:25:04;4.53;;;0.90;;
29294;SDS011;16305;48.566;8.846;2023-04-01T06:33:12;3.07;;;0.97;;
29294;SDS011;16305;48.566;8.846;2023-04-01T06:46:47;1.83;;;0.60;;
29294;SDS011;16305;48.566;8.846;2023-04-01T06:55:26;3.30;;;0.83;;
29294;SDS011;16305;48.566;8.846;2023-04-01T06:57:58;2.43;;;1.00;;
29294;SDS011;16305;48.566;8.846;2023-04-01T07:05:51;2.00;;;0.70;;
29294;SDS011;16305;48.566;8.846;2023-04-01T07:08:22;1.27;;;0.63;;
29294;SDS011;16305;48.566;8.846;2023-04-01T07:10:53;2.83;;;0.80;;
29294;SDS011;16305;48.566;8.846;2023-04-01T07:13:27;1.87;;;0.67;;
29294;SDS011;16305;48.566;8.846;2023-04-01T07:16:19;2.50;;;0.73;;
29294;SDS011;16305;48.566;8.846;2023-04-01T07:18:53;3.60;;;0.80;;
29294;SDS011;16305;48.566;8.846;2023-04-01T07:23:54;5.30;;;0.70;;
29294;SDS011;16305;48.566;8.846;2023-04-01T07:26:25;2.33;;;0.80;;
29294;SDS011;16305;48.566;8.846;2023-04-01T07:28:52;3.27;;;1.00;;
29294;SDS011;16305;48.566;8.846;2023-04-01T07:31:19;1.63;;;0.83;;
29294;SDS011;16305;48.566;8.846;2023-04-01T07:36:46;3.90;;;0.90;;
29294;SDS011;16305;48.566;8.846;2023-04-01T07:41:58;3.47;;;0.93;;
29294;SDS011;16305;48.566;8.846;2023-04-01T07:47:19;2.43;;;0.70;;
29294;SDS011;16305;48.566;8.846;2023-04-01T07:50:02;2.20;;;1.07;;
29294;SDS011;16305;48.566;8.846;2023-04-01T07:52:37;5.27;;;1.20;;
29294;SDS011;16305;48.566;8.846;2023-04-01T08:00:27;1.20;;;1.10;;
29294;SDS011;16305;48.566;8.846;2023-04-01T08:08:58;1.27;;;0.70;;
29294;SDS011;16305;48.566;8.846;2023-04-01T08:14:29;1.43;;;0.60;;
29294;SDS011;16305;48.566;8.846;2023-04-01T08:17:14;3.27;;;1.07;;
29294;SDS011;16305;48.566;8.846;2023-04-01T08:20:01;2.43;;;0.70;;
29294;SDS011;16305;48.566;8.846;2023-04-01T08:23:40;2.00;;;0.50;;
29294;SDS011;16305;48.566;8.846;2023-04-01T08:25:36;2.77;;;0.60;;
29294;SDS011;16305;48.566;8.846;2023-04-01T08:28:26;0.73;;;0.50;;
29294;SDS011;16305;48.566;8.846;2023-04-01T08:31:05;2.87;;;0.70;;
29294;SDS011;16305;48.566;8.846;2023-04-01T08:33:38;1.13;;;1.00;;
29294;SDS011;16305;48.566;8.846;2023-04-01T08:36:20;3.47;;;0.90;;
29294;SDS011;16305;48.566;8.846;2023-04-01T08:38:57;1.20;;;0.50;;
29294;SDS011;16305;48.566;8.846;2023-04-01T08:47:34;1.23;;;1.00;;
29294;SDS011;16305;48.566;8.846;2023-04-01T08:50:40;5.47;;;3.30;;
29294;SDS011;16305;48.566;8.846;2023-04-01T08:54:11;1.37;;;1.10;;
29294;SDS011;16305;48.566;8.846;2023-04-01T09:08:14;1.83;;;0.70;;
29294;SDS011;16305;48.566;8.846;2023-04-01T09:23:13;2.13;;;1.07;;
29294;SDS011;16305;48.566;8.846;2023-04-01T09:28:20;0.97;;;0.50;;
29294;SDS011;16305;48.566;8.846;2023-04-01T09:31:09;1.57;;;0.60;;
29294;SDS011;16305;48.566;8.846;2023-04-01T09:39:57;1.00;;;1.00;;
29294;SDS011;16305;48.566;8.846;2023-04-01T09:42:41;1.93;;;0.80;;
29294;SDS011;16305;48.566;8.846;2023-04-01T09:45:18;1.70;;;0.90;;
29294;SDS011;16305;48.566;8.846;2023-04-01T09:50:29;1.13;;;0.60;;
29294;SDS011;16305;48.566;8.846;2023-04-01T09:56:19;2.17;;;0.50;;
29294;SDS011;16305;48.566;8.846;2023-04-01T10:02:08;0.40;;;0.40;;
29294;SDS011;16305;48.566;8.846;2023-04-01T10:05:11;0.60;;;0.40;;
29294;SDS011;16305;48.566;8.846;2023-04-01T10:17:09;1.00;;;0.87;;
29294;SDS011;16305;48.566;8.846;2023-04-01T10:23:08;0.63;;;0.60;;
29294;SDS011;16305;48.566;8.846;2023-04-01T10:26:11;1.23;;;0.40;;
29294;SDS011;16305;48.566;8.846;2023-04-01T10:29:13;0.27;;;0.27;;
29294;SDS011;16305;48.566;8.846;2023-04-01T10:35:04;0.40;;;0.40;;
29294;SDS011;16305;48.566;8.846;2023-04-01T10:37:47;0.30;;;0.30;;
29294;SDS011;16305;48.566;8.846;2023-04-01T10:43:35;0.50;;;0.30;;
29294;SDS011;16305;48.566;8.846;2023-04-01T10:49:09;0.73;;;0.53;;
29294;SDS011;16305;48.566;8.846;2023-04-01T10:54:33;1.60;;;0.57;;
29294;SDS011;16305;48.566;8.846;2023-04-01T11:00:22;0.67;;;0.50;;
29294;SDS011;16305;48.566;8.846;2023-04-01T11:08:59;0.50;;;0.50;;
29294;SDS011;16305;48.566;8.846;2023-04-01T11:17:03;1.10;;;0.40;;
29294;SDS011;16305;48.566;8.846;2023-04-01T11:22:21;0.30;;;0.30;;
29294;SDS011;16305;48.566;8.846;2023-04-01T11:25:09;0.70;;;0.30;;
29294;SDS011;16305;48.566;8.846;2023-04-01T11:27:56;0.43;;;0.40;;
29294;SDS011;16305;48.566;8.846;2023-04-01T11:33:34;0.60;;;0.40;;
29294;SDS011;16305;48.566;8.846;2023-04-01T11:41:37;0.70;;;0.60;;
29294;SDS011;16305;48.566;8.846;2023-04-01T11:44:16;0.50;;;0.40;;
29294;SDS011;16305;48.566;8.846;2023-04-01T11:52:28;0.43;;;0.40;;
29294;SDS011;16305;48.566;8.846;2023-04-01T11:55:19;0.63;;;0.40;;
29294;SDS011;16305;48.566;8.846;2023-04-01T11:57:56;0.43;;;0.30;;
29294;SDS011;16305;48.566;8.846;2023-04-01T12:03:17;0.60;;;0.40;;
29294;SDS011;16305;48.566;8.846;2023-04-01T12:18:53;0.20;;;0.20;;
29294;SDS011;16305;48.566;8.846;2023-04-01T12:21:31;0.30;;;0.30;;
29294;SDS011;16305;48.566;8.846;2023-04-01T12:24:22;0.57;;;0.40;;
29294;SDS011;16305;48.566;8.846;2023-04-01T12:33:10;0.80;;;0.50;;
29294;SDS011;16305;48.566;8.846;2023-04-01T12:38:51;1.23;;;0.40;;
29294;SDS011;16305;48.566;8.846;2023-04-01T12:41:29;0.43;;;0.43;;
29294;SDS011;16305;48.566;8.846;2023-04-01T12:52:47;0.60;;;0.60;;
29294;SDS011;16305;48.566;8.846;2023-04-01T12:55:25;1.33;;;0.90;;
29294;SDS011;16305;48.566;8.846;2023-04-01T13:12:48;0.27;;;0.27;;
29294;SDS011;16305;48.566;8.846;2023-04-01T13:21:15;0.80;;;0.43;;
29294;SDS011;16305;48.566;8.846;2023-04-01T13:24:02;0.60;;;0.50;;
29294;SDS011;16305;48.566;8.846;2023-04-01T13:29:20;0.57;;;0.37;;
29294;SDS011;16305;48.566;8.846;2023-04-01T13:32:03;0.50;;;0.47;;
29294;SDS011;16305;48.566;8.846;2023-04-01T13:54:44;0.50;;;0.40;;
29294;SDS011;16305;48.566;8.846;2023-04-01T14:00:11;0.77;;;0.40;;
29294;SDS011;16305;48.566;8.846;2023-04-01T14:05:50;0.90;;;0.40;;
29294;SDS011;16305;48.566;8.846;2023-04-01T14:08:36;0.83;;;0.50;;
29294;SDS011;16305;48.566;8.846;2023-04-01T14:19:41;0.53;;;0.30;;
29294;SDS011;16305;48.566;8.846;2023-04-01T14:22:33;0.40;;;0.40;;
29294;SDS011;16305;48.566;8.846;2023-04-01T14:48:52;1.90;;;0.40;;
29294;SDS011;16305;48.566;8.846;2023-04-01T14:54:02;0.47;;;0.47;;
29294;SDS011;16305;48.566;8.846;2023-04-01T14:56:36;0.40;;;0.40;;
29294;SDS011;16305;48.566;8.846;2023-04-01T15:01:50;1.13;;;0.40;;
29294;SDS011;16305;48.566;8.846;2023-04-01T15:10:33;0.77;;;0.60;;
29294;SDS011;16305;48.566;8.846;2023-04-01T15:18:54;0.83;;;0.50;;
29294;SDS011;16305;48.566;8.846;2023-04-01T15:21:59;1.17;;;0.70;;
29294;SDS011;16305;48.566;8.846;2023-04-01T15:33:25;0.60;;;0.50;;
29294;SDS011;16305;48.566;8.846;2023-04-01T15:38:52;1.90;;;1.00;;
29294;SDS011;16305;48.566;8.846;2023-04-01T15:44:24;0.80;;;0.80;;
29294;SDS011;16305;48.566;8.846;2023-04-01T16:01:04;0.80;;;0.70;;
29294;SDS011;16305;48.566;8.846;2023-04-01T16:03:54;1.60;;;0.70;;
29294;SDS011;16305;48.566;8.846;2023-04-01T16:06:44;1.43;;;0.80;;
29294;SDS011;16305;48.566;8.846;2023-04-01T16:12:46;1.47;;;0.37;;
29294;SDS011;16305;48.566;8.846;2023-04-01T16:15:20;0.77;;;0.70;;
29294;SDS011;16305;48.566;8.846;2023-04-01T16:23:13;1.13;;;0.50;;
29294;SDS011;16305;48.566;8.846;2023-04-01T16:26:03;1.07;;;0.70;;
29294;SDS011;16305;48.566;8.846;2023-04-01T16:29:24;1.40;;;1.10;;
29294;SDS011;16305;48.566;8.846;2023-04-01T16:37:56;2.07;;;0.90;;
29294;SDS011;16305;48.566;8.846;2023-04-01T16:43:28;5.33;;;2.80;;
29294;SDS011;16305;48.566;8.846;2023-04-01T16:49:03;2.50;;;1.33;;
29294;SDS011;16305;48.566;8.846;2023-04-01T17:07:27;2.93;;;1.30;;
29294;SDS011;16305;48.566;8.846;2023-04-01T17:18:24;1.80;;;1.07;;
29294;SDS011;16305;48.566;8.846;2023-04-01T17:21:00;1.47;;;1.03;;
29294;SDS011;16305;48.566;8.846;2023-04-01T17:28:52;2.63;;;1.57;;
29294;SDS011;16305;48.566;8.846;2023-04-01T17:37:48;7.93;;;5.23;;
29294;SDS011;16305;48.566;8.846;2023-04-01T17:40:31;6.87;;;3.93;;
29294;SDS011;16305;48.566;8.846;2023-04-01T17:45:54;2.07;;;1.37;;
29294;SDS011;16305;48.566;8.846;2023-04-01T17:48:32;2.23;;;1.83;;
29294;SDS011;16305;48.566;8.846;2023-04-01T17:53:54;2.20;;;1.50;;
29294;SDS011;16305;48.566;8.846;2023-04-01T17:56:39;2.50;;;2.20;;
29294;SDS011;16305;48.566;8.846;2023-04-01T17:59:34;4.57;;;2.43;;
29294;SDS011;16305;48.566;8.846;2023-04-01T18:02:21;4.13;;;2.33;;
29294;SDS011;16305;48.566;8.846;2023-04-01T18:08:09;3.53;;;1.50;;
29294;SDS011;16305;48.566;8.846;2023-04-01T18:16:16;2.03;;;1.17;;
29294;SDS011;16305;48.566;8.846;2023-04-01T18:18:47;1.63;;;1.20;;
29294;SDS011;16305;48.566;8.846;2023-04-01T18:21:35;1.50;;;1.37;;
29294;SDS011;16305;48.566;8.846;2023-04-01T18:26:42;1.27;;;0.40;;
29294;SDS011;16305;48.566;8.846;2023-04-01T18:29:22;1.00;;;0.90;;
29294;SDS011;16305;48.566;8.846;2023-04-01T18:32:01;2.63;;;1.00;;
29294;SDS011;16305;48.566;8.846;2023-04-01T18:34:53;1.73;;;0.93;;
29294;SDS011;16305;48.566;8.846;2023-04-01T18:37:39;1.50;;;1.27;;
29294;SDS011;16305;48.566;8.846;2023-04-01T18:40:21;1.63;;;1.20;;
29294;SDS011;16305;48.566;8.846;2023-04-01T18:43:00;1.27;;;1.10;;
29294;SDS011;16305;48.566;8.846;2023-04-01T18:45:54;1.30;;;1.20;;
29294;SDS011;16305;48.566;8.846;2023-04-01T18:48:37;1.80;;;1.20;;
29294;SDS011;16305;48.566;8.846;2023-04-01T18:51:32;1.47;;;1.10;;
29294;SDS011;16305;48.566;8.846;2023-04-01T18:54:02;1.57;;;1.10;;
29294;SDS011;16305;48.566;8.846;2023-04-01T18:56:38;5.03;;;3.17;;
29294;SDS011;16305;48.566;8.846;2023-04-01T19:04:45;2.87;;;2.20;;
29294;SDS011;16305;48.566;8.846;2023-04-01T19:07:23;2.27;;;1.37;;
29294;SDS011;16305;48.566;8.846;2023-04-01T19:10:49;2.07;;;1.20;;
29294;SDS011;16305;48.566;8.846;2023-04-01T19:16:00;2.93;;;2.63;;
29294;SDS011;16305;48.566;8.846;2023-04-01T19:21:21;1.93;;;1.73;;
29294;SDS011;16305;48.566;8.846;2023-04-01T19:27:14;3.03;;;2.47;;
29294;SDS011;16305;48.566;8.846;2023-04-01T19:32:33;2.77;;;1.23;;
29294;SDS011;16305;48.566;8.846;2023-04-01T19:35:32;3.10;;;1.97;;
29294;SDS011;16305;48.566;8.846;2023-04-01T19:38:05;5.17;;;4.57;;
29294;SDS011;16305;48.566;8.846;2023-04-01T19:40:38;3.80;;;2.30;;
29294;SDS011;16305;48.566;8.846;2023-04-01T19:43:13;2.63;;;1.83;;
29294;SDS011;16305;48.566;8.846;2023-04-01T19:54:35;2.50;;;1.80;;
29294;SDS011;16305;48.566;8.846;2023-04-01T20:06:06;1.53;;;1.10;;
29294;SDS011;16305;48.566;8.846;2023-04-01T20:12:00;5.27;;;3.60;;
29294;SDS011;16305;48.566;8.846;2023-04-01T20:14:51;7.80;;;5.40;;
29294;SDS011;16305;48.566;8.846;2023-04-01T20:17:20;3.57;;;3.03;;
29294;SDS011;16305;48.566;8.846;2023-04-01T20:35:35;3.53;;;2.27;;
29294;SDS011;16305;48.566;8.846;2023-04-01T20:38:19;2.73;;;1.73;;
29294;SDS011;16305;48.566;8.846;2023-04-01T20:41:06;4.63;;;1.80;;
29294;SDS011;16305;48.566;8.846;2023-04-01T20:46:19;3.30;;;2.10;;
29294;SDS011;16305;48.566;8.846;2023-04-01T20:52:38;2.13;;;1.27;;
29294;SDS011;16305;48.566;8.846;2023-04-01T20:57:34;1.13;;;1.03;;
29294;SDS011;16305;48.566;8.846;2023-04-01T21:05:59;1.17;;;1.07;;
29294;SDS011;16305;48.566;8.846;2023-04-01T21:14:35;1.90;;;1.43;;
29294;SDS011;16305;48.566;8.846;2023-04-01T21:30:01;2.00;;;1.80;;
29294;SDS011;16305;48.566;8.846;2023-04-01T21:33:07;2.43;;;1.60;;
29294;SDS011;16305;48.566;8.846;2023-04-01T21:40:49;1.40;;;0.80;;
29294;SDS011;16305;48.566;8.846;2023-04-01T21:43:28;0.90;;;0.90;;
29294;SDS011;16305;48.566;8.846;2023-04-01T21:57:57;1.67;;;0.80;;
29294;SDS011;16305;48.566;8.846;2023-04-01T22:04:01;0.73;;;0.60;;
29294;SDS011;16305;48.566;8.846;2023-04-01T22:06:54;0.67;;;0.60;;
29294;SDS011;16305;48.566;8.846;2023-04-01T22:09:35;1.27;;;1.07;;
29294;SDS011;16305;48.566;8.846;2023-04-01T22:12:05;1.80;;;0.73;;
29294;SDS011;16305;48.566;8.846;2023-04-01T22:17:52;1.60;;;1.10;;
29294;SDS011;16305;48.566;8.846;2023-04-01T22:20:30;1.20;;;1.10;;
29294;SDS011;16305;48.566;8.846;2023-04-01T22:25:40;1.13;;;0.67;;
29294;SDS011;16305;48.566;8.846;2023-04-01T22:28:14;1.23;;;0.90;;
29294;SDS011;16305;48.566;8.846;2023-04-01T22:31:05;0.83;;;0.70;;
29294;SDS011;16305;48.566;8.846;2023-04-01T22:42:02;2.37;;;1.77;;
29294;SDS011;16305;48.566;8.846;2023-04-01T22:44:52;2.30;;;1.80;;
29294;SDS011;16305;48.566;8.846;2023-04-01T22:53:38;1.57;;;1.10;;
29294;SDS011;16305;48.566;8.846;2023-04-01T22:56:20;1.50;;;1.20;;
29294;SDS011;16305;48.566;8.846;2023-04-01T23:01:54;1.13;;;0.80;;
29294;SDS011;16305;48.566;8.846;2023-04-01T23:04:24;0.43;;;0.43;;
29294;SDS011;16305;48.566;8.846;2023-04-01T23:07:01;2.17;;;0.80;;
29294;SDS011;16305;48.566;8.846;2023-04-01T23:09:31;1.30;;;1.10;;
29294;SDS011;16305;48.566;8.846;2023-04-01T23:12:03;2.33;;;1.23;;
29294;SDS011;16305;48.566;8.846;2023-04-01T23:22:34;1.13;;;1.00;;
29294;SDS011;16305;48.566;8.846;2023-04-01T23:27:53;1.47;;;1.20;;
29294;SDS011;16305;48.566;8.846;2023-04-01T23:33:21;2.73;;;1.37;;
29294;SDS011;16305;48.566;8.846;2023-04-01T23:35:50;1.00;;;0.90;;
29294;SDS011;16305;48.566;8.846;2023-04-01T23:38:30;0.90;;;0.80;;
29294;SDS011;16305;48.566;8.846;2023-04-01T23:40:57;1.33;;;0.90;;
29294;SDS011;16305;48.566;8.846;2023-04-01T23:43:27;0.70;;;0.70;;
29294;SDS011;16305;48.566;8.846;2023-04-01T23:45:56;0.70;;;0.57;;
29294;SDS011;16305;48.566;8.846;2023-04-01T23:48:29;0.90;;;0.73;;
29294;SDS011;16305;48.566;8.846;2023-04-01T23:50:57;1.07;;;0.70;;
29294;SDS011;16305;48.566;8.846;2023-04-01T23:53:25;0.80;;;0.70;;
29294;SDS011;16305;48.566;8.846;2023-04-01T23:55:53;1.13;;;0.80;;
29294;SDS011;16305;48.566;8.846;2023-04-01T23:58:22;0.60;;;0.60;;
